Time;durP1;ratioP1;P1;durP2;ratioP2;P2;SDS_P1;SDS_P2;PMS_P1;PMS_P2;Temp;Humidity;BMP_temperature;BMP_pressure;BME280_temperature;BME280_humidity;BME280_pressure;Samples;Min_cycle;Max_cycle;Signal;HPM_P1;HPM_P2
2022/10/01 00:02:02;;;;;;;106.83;37.03;;;10.50;99.90;;;;;;4402807;28;659002;-83
2022/10/01 00:04:49;;;;;;;91.27;34.53;;;10.40;99.90;;;;;;4419982;28;659574;-83
2022/10/01 00:07:39;;;;;;;94.23;35.33;;;10.40;99.90;;;;;;4399032;28;658899;-83
2022/10/01 00:10:29;;;;;;;90.07;35.40;;;10.50;99.90;;;;;;4405290;28;659148;-83
2022/10/01 00:13:16;;;;;;;102.03;38.10;;;10.50;99.90;;;;;;4405471;28;658610;-82
2022/10/01 00:16:06;;;;;;;101.47;36.43;;;10.40;99.90;;;;;;4425166;28;660088;-83
2022/10/01 00:18:55;;;;;;;119.13;38.47;;;10.30;99.90;;;;;;4402427;28;659882;-83
2022/10/01 00:21:42;;;;;;;118.07;39.90;;;10.30;99.90;;;;;;4402430;28;660553;-83
2022/10/01 00:24:29;;;;;;;104.10;37.67;;;10.30;99.90;;;;;;4424724;28;659710;-83
2022/10/01 00:27:16;;;;;;;108.67;39.47;;;10.40;99.90;;;;;;4406390;28;660026;-83
2022/10/01 00:30:04;;;;;;;120.00;40.60;;;10.40;99.90;;;;;;4426235;28;659847;-83
2022/10/01 00:32:53;;;;;;;112.43;40.90;;;10.40;99.90;;;;;;4401232;28;659466;-82
2022/10/01 00:35:42;;;;;;;116.50;40.27;;;10.40;99.90;;;;;;4406327;28;659858;-82
2022/10/01 00:38:29;;;;;;;103.83;38.60;;;10.30;99.90;;;;;;4418485;28;659147;-83
2022/10/01 00:41:16;;;;;;;117.67;42.13;;;10.40;99.90;;;;;;4405850;28;659438;-82
2022/10/01 00:44:24;;;;;;;110.10;40.57;;;10.40;99.90;;;;;;4421540;28;659677;-83
2022/10/01 00:47:19;;;;;;;127.77;41.67;;;10.30;99.90;;;;;;4405209;28;659651;-83
2022/10/01 00:50:09;;;;;;;109.83;41.57;;;10.30;99.90;;;;;;4405190;28;659734;-83
2022/10/01 00:52:58;;;;;;;122.57;42.37;;;10.30;99.90;;;;;;4404044;28;659636;-83
2022/10/01 00:55:46;;;;;;;119.40;43.00;;;10.20;99.90;;;;;;4412129;28;660107;-82
2022/10/01 00:58:33;;;;;;;123.27;42.87;;;10.30;99.90;;;;;;4427983;28;659893;-83
2022/10/01 01:01:20;;;;;;;114.80;42.33;;;10.30;99.90;;;;;;4398769;28;659463;-83
2022/10/01 01:04:15;;;;;;;109.70;41.50;;;10.30;99.90;;;;;;4423229;28;660400;-83
2022/10/01 01:07:02;;;;;;;102.37;41.93;;;10.30;99.90;;;;;;4398891;28;660418;-83
2022/10/01 01:09:50;;;;;;;109.03;42.17;;;10.30;99.90;;;;;;4426170;28;660514;-83
2022/10/01 01:12:46;;;;;;;104.13;43.33;;;10.30;99.90;;;;;;4396510;28;660776;-84
2022/10/01 01:15:35;;;;;;;101.83;39.20;;;10.30;99.90;;;;;;4401199;28;660316;-83
2022/10/01 01:18:24;;;;;;;103.53;40.53;;;10.30;99.90;;;;;;4399415;28;659987;-82
2022/10/01 01:21:22;;;;;;;113.97;40.77;;;10.20;99.90;;;;;;4397734;28;659574;-84
2022/10/01 01:24:21;;;;;;;136.07;43.07;;;10.20;99.90;;;;;;4403710;28;659484;-83
2022/10/01 01:27:37;;;;;;;103.20;37.00;;;10.20;99.90;;;;;;4404926;28;659044;-83
2022/10/01 01:30:25;;;;;;;94.57;34.67;;;10.20;99.90;;;;;;4371650;28;659753;-84
2022/10/01 01:33:14;;;;;;;91.93;33.13;;;10.30;99.90;;;;;;4405192;28;659445;-84
2022/10/01 01:36:03;;;;;;;83.67;31.83;;;10.20;99.90;;;;;;4399748;28;658708;-83
2022/10/01 01:38:53;;;;;;;82.13;28.40;;;10.10;99.90;;;;;;4399991;28;658674;-81
2022/10/01 01:41:42;;;;;;;96.60;32.27;;;10.20;99.90;;;;;;4406366;28;658966;-81
2022/10/01 01:44:32;;;;;;;111.87;33.93;;;10.10;99.90;;;;;;4424241;28;659081;-83
2022/10/01 01:47:21;;;;;;;100.37;33.93;;;10.10;99.90;;;;;;4403181;28;660090;-83
2022/10/01 01:50:09;;;;;;;156.70;35.63;;;10.10;99.90;;;;;;4399201;28;660540;-84
2022/10/01 01:52:57;;;;;;;187.27;31.67;;;10.00;99.90;;;;;;4403654;28;660026;-83
2022/10/01 01:55:48;;;;;;;147.37;32.13;;;9.90;99.90;;;;;;4420561;28;659954;-83
2022/10/01 01:58:35;;;;;;;147.43;34.67;;;9.80;99.90;;;;;;4385537;28;659380;-82
2022/10/01 02:01:33;;;;;;;134.73;34.60;;;9.80;99.90;;;;;;4426326;28;659546;-83
2022/10/01 02:04:23;;;;;;;132.43;33.53;;;9.80;99.90;;;;;;4404275;28;658679;-82
2022/10/01 02:07:38;;;;;;;140.95;33.75;;;9.90;99.90;;;;;;4402073;28;658998;-82
2022/10/01 02:10:35;;;;;;;135.30;34.07;;;9.80;99.90;;;;;;4404425;28;659460;-82
2022/10/01 02:13:28;;;;;;;111.10;33.47;;;9.90;99.90;;;;;;4398938;28;658873;-84
2022/10/01 02:16:20;;;;;;;109.22;32.63;;;9.90;99.90;;;;;;4404070;28;659297;-81
2022/10/01 02:19:12;;;;;;;92.10;30.97;;;9.90;99.90;;;;;;4400052;28;659641;-83
2022/10/01 02:22:01;;;;;;;83.83;30.33;;;9.90;99.90;;;;;;4401396;28;657500;-84
2022/10/01 02:24:50;;;;;;;87.97;30.60;;;9.90;99.90;;;;;;4401828;28;657492;-83
2022/10/01 02:27:40;;;;;;;100.90;30.93;;;9.90;99.90;;;;;;4400989;28;658486;-80
2022/10/01 02:30:27;;;;;;;94.07;32.03;;;9.90;99.90;;;;;;4398208;28;660005;-83
2022/10/01 02:33:15;;;;;;;90.53;31.27;;;9.90;99.90;;;;;;4423002;28;657851;-83
2022/10/01 02:36:03;;;;;;;110.87;34.00;;;9.90;99.90;;;;;;4406177;28;658506;-83
2022/10/01 02:38:52;;;;;;;110.87;33.53;;;9.90;99.90;;;;;;4392151;28;658633;-83
2022/10/01 02:41:39;;;;;;;105.13;33.80;;;9.90;99.90;;;;;;4418062;28;658908;-83
2022/10/01 02:44:29;;;;;;;112.87;32.03;;;9.90;99.90;;;;;;4395984;28;658985;-83
2022/10/01 02:47:18;;;;;;;100.63;33.17;;;10.00;99.90;;;;;;4390202;28;659600;-83
2022/10/01 02:50:06;;;;;;;116.37;33.60;;;9.90;99.90;;;;;;4400355;28;659625;-82
2022/10/01 02:52:55;;;;;;;118.23;34.00;;;9.90;99.90;;;;;;4424505;28;660110;-81
2022/10/01 02:55:44;;;;;;;106.63;33.33;;;9.90;99.90;;;;;;4403900;28;659052;-83
2022/10/01 02:58:30;;;;;;;99.67;33.33;;;9.90;99.90;;;;;;4405756;28;658714;-82
2022/10/01 03:01:17;;;;;;;104.70;31.90;;;10.00;99.90;;;;;;4424586;28;658471;-83
2022/10/01 03:04:04;;;;;;;99.40;30.57;;;9.90;99.90;;;;;;4423820;28;660173;-84
2022/10/01 03:06:52;;;;;;;100.70;32.07;;;9.90;99.90;;;;;;4405444;28;657462;-83
2022/10/01 03:09:39;;;;;;;121.63;34.63;;;10.00;99.90;;;;;;4422869;28;659016;-83
2022/10/01 03:12:27;;;;;;;102.63;33.17;;;9.90;99.90;;;;;;4400007;28;660330;-83
2022/10/01 03:15:16;;;;;;;113.07;34.43;;;9.80;99.90;;;;;;4426431;28;658837;-83
2022/10/01 03:18:03;;;;;;;134.90;36.43;;;9.90;99.90;;;;;;4395381;28;659114;-83
2022/10/01 03:20:50;;;;;;;130.57;35.80;;;9.80;99.90;;;;;;4403768;28;658436;-80
2022/10/01 03:23:37;;;;;;;131.37;37.07;;;9.80;99.90;;;;;;4419736;28;659717;-83
2022/10/01 03:26:24;;;;;;;141.13;36.90;;;9.80;99.90;;;;;;4428485;28;658532;-84
2022/10/01 03:29:14;;;;;;;131.23;37.67;;;9.80;99.90;;;;;;4401736;28;658677;-83
2022/10/01 03:32:01;;;;;;;116.53;37.07;;;9.80;99.90;;;;;;4398226;28;658995;-82
2022/10/01 03:34:48;;;;;;;128.37;38.63;;;9.80;99.90;;;;;;4419754;28;658568;-84
2022/10/01 03:37:35;;;;;;;125.23;37.07;;;9.80;99.90;;;;;;4402239;28;659136;-81
2022/10/01 03:40:24;;;;;;;114.35;36.33;;;9.80;99.90;;;;;;4426540;28;657843;-83
2022/10/01 03:43:11;;;;;;;96.57;33.93;;;9.80;99.90;;;;;;4402103;28;658805;-83
2022/10/01 03:46:00;;;;;;;94.77;33.33;;;9.80;99.90;;;;;;4424014;28;657589;-83
2022/10/01 03:48:48;;;;;;;100.93;34.70;;;9.80;99.90;;;;;;4402664;28;657948;-81
2022/10/01 03:51:36;;;;;;;102.80;33.17;;;9.70;99.90;;;;;;4407399;28;659081;-82
2022/10/01 03:54:24;;;;;;;94.50;32.10;;;9.70;99.90;;;;;;4423212;28;659379;-83
2022/10/01 03:57:11;;;;;;;87.27;31.17;;;9.70;99.90;;;;;;4404487;28;657376;-83
2022/10/01 03:59:58;;;;;;;91.60;33.33;;;9.60;99.90;;;;;;4425048;28;658319;-83
2022/10/01 04:02:47;;;;;;;80.13;29.83;;;9.60;99.90;;;;;;4398616;28;657792;-81
2022/10/01 04:05:34;;;;;;;87.07;30.40;;;9.60;99.90;;;;;;4418306;28;657563;-83
2022/10/01 04:08:21;;;;;;;88.17;30.63;;;9.60;99.90;;;;;;4403969;28;657528;-82
2022/10/01 04:11:08;;;;;;;88.40;31.23;;;9.50;99.90;;;;;;4425423;28;658033;-83
2022/10/01 04:13:56;;;;;;;83.93;31.20;;;9.50;99.90;;;;;;4398897;28;657682;-81
2022/10/01 04:16:44;;;;;;;96.53;31.63;;;9.50;99.90;;;;;;4418960;28;657413;-83
2022/10/01 04:19:32;;;;;;;89.33;31.23;;;9.50;99.90;;;;;;4401790;28;657505;-83
2022/10/01 04:22:19;;;;;;;89.70;33.05;;;9.60;99.90;;;;;;4426260;28;657193;-83
2022/10/01 04:25:09;;;;;;;89.77;32.33;;;9.60;99.90;;;;;;4399272;28;657649;-82
2022/10/01 04:27:58;;;;;;;85.20;31.13;;;9.60;99.90;;;;;;4404366;28;657707;-83
2022/10/01 04:30:45;;;;;;;79.80;30.70;;;9.60;99.90;;;;;;4414749;28;658105;-82
2022/10/01 04:33:32;;;;;;;82.70;31.27;;;9.60;99.90;;;;;;4425382;28;658989;-83
2022/10/01 04:36:22;;;;;;;83.77;30.37;;;9.60;99.90;;;;;;4418735;28;659347;-81
2022/10/01 04:39:09;;;;;;;89.93;31.40;;;9.50;99.90;;;;;;4423855;28;657889;-83
2022/10/01 04:41:56;;;;;;;87.00;29.30;;;9.60;99.90;;;;;;4397883;28;657427;-83
2022/10/01 04:44:43;;;;;;;75.10;28.63;;;9.60;99.90;;;;;;4420338;28;657524;-84
2022/10/01 04:47:30;;;;;;;91.87;31.00;;;9.70;99.90;;;;;;4403622;28;657904;-83
2022/10/01 04:50:18;;;;;;;96.27;31.10;;;9.60;99.90;;;;;;4424594;28;658555;-83
2022/10/01 04:53:06;;;;;;;96.23;32.97;;;9.60;99.90;;;;;;4403158;28;657330;-82
2022/10/01 04:55:53;;;;;;;123.93;35.13;;;9.60;99.90;;;;;;4424102;28;657500;-83
2022/10/01 04:58:41;;;;;;;156.60;41.90;;;9.60;99.90;;;;;;4401952;28;658474;-84
2022/10/01 05:01:29;;;;;;;230.90;52.73;;;9.70;99.90;;;;;;4425484;28;659446;-84
2022/10/01 05:04:17;;;;;;;182.47;50.63;;;9.70;99.90;;;;;;4402014;28;659543;-84
2022/10/01 05:07:04;;;;;;;142.37;37.10;;;9.70;99.90;;;;;;4428567;28;658598;-84
2022/10/01 05:09:52;;;;;;;107.43;34.20;;;9.70;99.90;;;;;;4405774;28;658932;-84
2022/10/01 05:12:40;;;;;;;107.97;32.80;;;9.70;99.90;;;;;;4425356;28;658811;-83
2022/10/01 05:15:28;;;;;;;101.77;31.07;;;9.80;99.90;;;;;;4425398;28;659338;-84
2022/10/01 05:18:15;;;;;;;96.60;32.43;;;9.80;99.90;;;;;;4414959;28;658687;-81
2022/10/01 05:21:04;;;;;;;97.83;33.17;;;9.80;99.90;;;;;;4430665;28;657564;-83
2022/10/01 05:23:52;;;;;;;98.27;35.27;;;9.90;99.90;;;;;;4403363;28;658169;-83
2022/10/01 05:26:40;;;;;;;136.27;42.17;;;9.90;99.90;;;;;;4424279;28;657200;-84
2022/10/01 05:29:27;;;;;;;120.82;38.22;;;9.90;99.90;;;;;;4405046;28;658873;-84
2022/10/01 05:32:14;;;;;;;144.43;41.70;;;10.00;99.90;;;;;;4428959;28;658703;-83
2022/10/01 05:35:01;;;;;;;105.77;33.10;;;10.00;99.90;;;;;;4403642;28;660673;-84
2022/10/01 05:37:52;;;;;;;88.27;31.10;;;10.00;99.90;;;;;;4422317;28;660470;-84
2022/10/01 05:40:39;;;;;;;97.13;30.57;;;10.00;99.90;;;;;;4404668;28;658719;-83
2022/10/01 05:43:27;;;;;;;77.33;29.07;;;10.00;99.90;;;;;;4395584;28;658477;-83
2022/10/01 05:46:14;;;;;;;75.17;30.97;;;10.00;99.90;;;;;;4427578;28;658271;-84
2022/10/01 05:49:01;;;;;;;96.43;34.13;;;10.00;99.90;;;;;;4403921;28;658514;-84
2022/10/01 05:51:49;;;;;;;113.50;37.63;;;10.10;99.90;;;;;;4415963;28;658355;-84
2022/10/01 05:54:36;;;;;;;194.00;39.70;;;10.10;99.90;;;;;;4401739;28;659540;-83
2022/10/01 05:57:23;;;;;;;145.57;40.13;;;10.10;99.90;;;;;;4423473;28;660068;-84
2022/10/01 06:00:13;;;;;;;176.40;42.07;;;10.10;99.90;;;;;;4407306;28;660589;-82
2022/10/01 06:03:01;;;;;;;343.60;45.07;;;10.20;99.90;;;;;;4399032;28;660939;-82
2022/10/01 06:05:48;;;;;;;313.93;40.13;;;10.20;99.90;;;;;;4422000;28;660415;-84
2022/10/01 06:08:35;;;;;;;127.60;37.70;;;10.20;99.90;;;;;;4403232;28;659816;-82
2022/10/01 06:11:23;;;;;;;176.20;36.27;;;10.30;99.90;;;;;;4421528;28;660726;-84
2022/10/01 06:14:10;;;;;;;117.57;32.20;;;10.40;99.90;;;;;;4399772;28;659616;-83
2022/10/01 06:16:59;;;;;;;98.87;31.47;;;10.40;99.90;;;;;;4420453;28;660390;-84
2022/10/01 06:19:46;;;;;;;91.57;31.23;;;10.40;99.90;;;;;;4399331;28;658582;-84
2022/10/01 06:22:33;;;;;;;96.55;33.38;;;10.50;99.90;;;;;;4426437;28;659762;-84
2022/10/01 06:25:20;;;;;;;96.37;33.53;;;10.60;99.90;;;;;;4400447;28;659048;-83
2022/10/01 06:28:08;;;;;;;98.13;33.33;;;10.70;99.90;;;;;;4421377;28;659906;-83
2022/10/01 06:30:55;;;;;;;89.77;30.43;;;10.80;99.90;;;;;;4398406;28;659209;-83
2022/10/01 06:33:44;;;;;;;86.70;32.17;;;10.80;99.90;;;;;;4429350;28;659547;-84
2022/10/01 06:36:31;;;;;;;84.23;31.00;;;10.90;99.90;;;;;;4405066;28;658906;-84
2022/10/01 06:39:18;;;;;;;87.67;31.73;;;11.00;99.90;;;;;;4424099;28;659239;-84
2022/10/01 06:42:05;;;;;;;83.33;29.27;;;11.00;99.90;;;;;;4398158;28;659249;-82
2022/10/01 06:44:52;;;;;;;76.43;29.92;;;11.10;99.90;;;;;;4426831;28;658422;-84
2022/10/01 06:47:39;;;;;;;69.43;29.33;;;11.10;99.90;;;;;;4429298;28;658732;-84
2022/10/01 06:50:28;;;;;;;73.70;29.23;;;11.10;99.90;;;;;;4404263;28;658433;-84
2022/10/01 06:53:16;;;;;;;75.23;29.43;;;11.20;99.90;;;;;;4404515;28;658816;-82
2022/10/01 06:56:06;;;;;;;69.03;28.10;;;11.20;99.90;;;;;;4425618;28;658986;-84
2022/10/01 06:58:53;;;;;;;71.43;29.70;;;11.30;99.90;;;;;;4402738;28;658902;-82
2022/10/01 07:01:40;;;;;;;74.03;27.97;;;11.30;99.90;;;;;;4403179;28;658661;-82
2022/10/01 07:04:28;;;;;;;74.60;29.23;;;11.40;99.90;;;;;;4421832;28;659972;-82
2022/10/01 07:07:16;;;;;;;81.10;31.73;;;11.30;99.90;;;;;;4415300;28;658559;-80
2022/10/01 07:10:04;;;;;;;76.30;30.70;;;11.30;99.90;;;;;;4423621;28;658722;-82
2022/10/01 07:12:51;;;;;;;77.90;32.23;;;11.40;99.90;;;;;;4400560;28;658353;-82
2022/10/01 07:15:38;;;;;;;80.80;31.97;;;11.40;99.90;;;;;;4426636;28;659065;-82
2022/10/01 07:18:25;;;;;;;72.30;30.13;;;11.50;99.90;;;;;;4402798;28;658541;-82
2022/10/01 07:21:13;;;;;;;71.03;29.00;;;11.50;99.90;;;;;;4419005;28;659053;-82
2022/10/01 07:24:02;;;;;;;67.73;28.70;;;11.60;99.90;;;;;;4417369;28;658588;-80
2022/10/01 07:26:49;;;;;;;65.67;28.63;;;11.70;99.90;;;;;;4433299;28;658510;-82
2022/10/01 07:29:37;;;;;;;68.80;28.73;;;11.70;99.90;;;;;;4409079;28;658955;-83
2022/10/01 07:32:24;;;;;;;64.40;28.30;;;11.80;99.90;;;;;;4425642;28;658844;-82
2022/10/01 07:35:11;;;;;;;62.67;27.67;;;11.90;99.90;;;;;;4403467;28;659604;-82
2022/10/01 07:37:58;;;;;;;56.73;25.53;;;12.00;99.90;;;;;;4420566;28;659429;-83
2022/10/01 07:40:52;;;;;;;57.63;26.90;;;12.10;99.90;;;;;;4402655;28;658854;-81
2022/10/01 07:43:41;;;;;;;59.10;26.73;;;12.20;99.90;;;;;;4402135;28;658650;-77
2022/10/01 07:46:28;;;;;;;64.27;27.50;;;12.30;99.90;;;;;;4403216;28;659352;-78
2022/10/01 07:49:16;;;;;;;57.13;26.77;;;12.40;99.90;;;;;;4407916;28;658461;-77
2022/10/01 07:52:05;;;;;;;56.03;26.27;;;12.50;99.90;;;;;;4424272;28;659173;-78
2022/10/01 07:54:52;;;;;;;59.30;27.10;;;12.60;99.90;;;;;;4402945;28;659787;-78
2022/10/01 07:57:41;;;;;;;55.40;26.97;;;12.60;99.90;;;;;;4427038;28;658726;-78
2022/10/01 08:00:28;;;;;;;59.70;28.03;;;12.50;99.90;;;;;;4402132;28;659632;-78
2022/10/01 08:03:16;;;;;;;63.07;28.20;;;12.40;99.90;;;;;;4405946;28;659188;-78
2022/10/01 08:06:05;;;;;;;60.37;27.83;;;12.40;99.90;;;;;;4423021;28;659754;-78
2022/10/01 08:08:52;;;;;;;58.33;27.07;;;12.50;99.90;;;;;;4401661;28;659103;-78
2022/10/01 08:11:39;;;;;;;60.63;27.33;;;12.60;99.90;;;;;;4425831;28;659098;-77
2022/10/01 08:14:29;;;;;;;59.23;27.87;;;12.60;99.90;;;;;;4400126;28;658807;-77
2022/10/01 08:17:16;;;;;;;59.20;26.27;;;12.60;99.90;;;;;;4401012;28;658776;-77
2022/10/01 08:20:03;;;;;;;56.27;26.07;;;12.70;99.90;;;;;;4425198;28;658877;-77
2022/10/01 08:22:50;;;;;;;52.20;25.70;;;12.80;99.90;;;;;;4402033;28;659381;-77
2022/10/01 08:25:38;;;;;;;54.10;26.97;;;13.00;99.90;;;;;;4424408;28;659990;-77
2022/10/01 08:28:25;;;;;;;57.85;28.35;;;13.00;99.90;;;;;;4407543;28;658692;-77
2022/10/01 08:31:14;;;;;;;59.47;28.23;;;13.00;99.90;;;;;;4420273;28;659164;-77
2022/10/01 08:34:01;;;;;;;58.53;28.53;;;13.00;99.90;;;;;;4404839;28;659172;-76
2022/10/01 08:36:50;;;;;;;61.47;28.07;;;13.00;99.90;;;;;;4423574;28;659748;-76
2022/10/01 08:39:37;;;;;;;51.60;24.75;;;13.20;99.90;;;;;;4395528;28;659580;-77
2022/10/01 08:42:46;;;;;;;57.23;25.73;;;13.30;99.90;;;;;;4417005;28;658283;-76
2022/10/01 08:45:36;;;;;;;45.37;23.33;;;13.40;99.90;;;;;;4400430;28;658929;-76
2022/10/01 08:48:35;;;;;;;52.83;27.13;;;13.40;99.90;;;;;;4396444;28;658822;-76
2022/10/01 08:51:25;;;;;;;50.80;24.83;;;13.30;99.90;;;;;;4399781;28;658699;-76
2022/10/01 08:54:20;;;;;;;46.23;23.13;;;13.20;99.90;;;;;;4400161;28;658831;-76
2022/10/01 08:57:11;;;;;;;48.67;25.17;;;13.40;99.90;;;;;;4401395;28;658849;-76
2022/10/01 08:59:59;;;;;;;46.83;25.07;;;13.60;99.90;;;;;;4404485;28;659252;-77
2022/10/01 09:02:46;;;;;;;47.87;24.67;;;13.80;99.90;;;;;;4392120;28;658456;-76
2022/10/01 09:05:39;;;;;;;51.87;24.07;;;13.70;99.90;;;;;;4417036;28;658395;-76
2022/10/01 09:08:42;;;;;;;58.50;26.37;;;13.50;99.90;;;;;;4401308;28;658481;-76
2022/10/01 09:11:43;;;;;;;51.10;26.93;;;13.40;99.90;;;;;;4397271;28;658660;-76
2022/10/01 09:14:44;;;;;;;49.47;25.80;;;13.30;99.90;;;;;;4401278;28;659507;-77
2022/10/01 09:17:48;;;;;;;45.47;24.30;;;13.20;99.90;;;;;;4401350;28;658996;-77
2022/10/01 09:20:38;;;;;;;47.23;24.37;;;13.20;99.90;;;;;;4379792;28;658844;-77
2022/10/01 09:23:27;;;;;;;47.97;25.97;;;13.20;99.90;;;;;;4399483;28;658534;-77
2022/10/01 09:26:14;;;;;;;47.80;25.93;;;13.50;99.90;;;;;;4411878;28;658788;-78
2022/10/01 09:29:01;;;;;;;50.00;26.80;;;14.00;99.90;;;;;;4400585;28;658727;-77
2022/10/01 09:31:48;;;;;;;46.40;24.57;;;14.50;99.90;;;;;;4423072;28;659228;-77
2022/10/01 09:34:37;;;;;;;40.80;22.17;;;14.70;99.90;;;;;;4398401;28;658564;-78
2022/10/01 09:37:28;;;;;;;40.13;22.00;;;14.80;99.90;;;;;;4416249;28;658461;-76
2022/10/01 09:40:19;;;;;;;42.03;21.40;;;14.70;99.90;;;;;;4374834;28;659159;-77
2022/10/01 09:43:07;;;;;;;40.17;22.30;;;14.40;99.90;;;;;;4403332;28;658198;-76
2022/10/01 09:45:56;;;;;;;37.80;21.17;;;14.40;99.90;;;;;;4403282;28;658649;-77
2022/10/01 09:48:46;;;;;;;38.47;20.73;;;14.50;99.90;;;;;;4439262;22;659079;-86
2022/10/01 09:51:34;;;;;;;38.97;20.67;;;14.50;99.90;;;;;;4329782;28;659314;-87
2022/10/01 09:54:27;;;;;;;42.07;20.30;;;14.60;99.90;;;;;;4354916;28;659105;-87
2022/10/01 09:57:14;;;;;;;40.23;21.03;;;14.50;99.90;;;;;;4342611;28;658612;-87
2022/10/01 10:00:09;;;;;;;36.93;21.23;;;14.40;99.90;;;;;;4339275;28;659403;-86
2022/10/01 10:02:57;;;;;;;42.97;22.73;;;14.50;99.90;;;;;;4335686;28;658525;-86
2022/10/01 10:05:47;;;;;;;37.27;21.27;;;14.50;99.90;;;;;;4361531;28;658885;-85
2022/10/01 10:08:35;;;;;;;38.70;20.87;;;14.40;99.90;;;;;;4328716;28;658685;-85
2022/10/01 10:11:25;;;;;;;41.17;21.17;;;14.30;99.90;;;;;;4336404;28;659041;-85
2022/10/01 10:14:15;;;;;;;36.93;19.77;;;14.20;99.90;;;;;;4336984;28;659066;-85
2022/10/01 10:17:05;;;;;;;39.03;20.47;;;13.90;99.90;;;;;;4334265;28;658990;-85
2022/10/01 10:19:52;;;;;;;42.53;20.33;;;14.00;99.90;;;;;;4328398;28;659558;-85
2022/10/01 10:22:39;;;;;;;37.37;19.50;;;14.00;99.90;;;;;;4360217;28;658718;-85
2022/10/01 10:25:26;;;;;;;33.83;19.13;;;14.00;99.90;;;;;;4337197;28;659136;-85
2022/10/01 10:28:22;;;;;;;34.70;19.70;;;14.20;99.90;;;;;;4359119;28;659181;-85
2022/10/01 10:31:10;;;;;;;35.77;19.37;;;14.10;99.90;;;;;;4338416;28;658621;-84
2022/10/01 10:34:00;;;;;;;34.13;18.90;;;14.00;99.90;;;;;;4335476;28;659272;-85
2022/10/01 10:36:47;;;;;;;40.30;19.87;;;13.90;99.90;;;;;;4339063;28;659856;-85
2022/10/01 10:39:36;;;;;;;33.00;18.77;;;13.80;99.90;;;;;;4344067;28;658377;-84
2022/10/01 10:42:24;;;;;;;38.73;18.73;;;13.90;99.90;;;;;;4348719;28;658843;-85
2022/10/01 10:45:18;;;;;;;32.63;17.57;;;13.80;99.90;;;;;;4339585;28;658936;-84
2022/10/01 10:48:06;;;;;;;31.60;16.60;;;14.00;99.90;;;;;;4343993;28;658717;-85
2022/10/01 10:50:58;;;;;;;28.87;16.90;;;14.20;99.90;;;;;;4385863;28;658830;-84
2022/10/01 10:53:48;;;;;;;29.23;16.30;;;14.20;99.90;;;;;;4369530;28;658796;-84
2022/10/01 10:56:35;;;;;;;30.33;16.63;;;14.30;99.90;;;;;;4376739;28;658522;-86
2022/10/01 10:59:22;;;;;;;25.53;15.27;;;14.20;99.90;;;;;;4399699;28;658877;-86
2022/10/01 11:02:16;;;;;;;28.53;16.13;;;14.20;99.90;;;;;;4388276;28;659096;-86
2022/10/01 11:05:04;;;;;;;23.80;14.37;;;14.20;99.90;;;;;;4367904;28;659078;-85
2022/10/01 11:16:26;;;;;;;26.47;15.43;;;13.80;99.90;;;;;;5570322;23;535641;-66
2022/10/01 11:35:21;;;;;;;31.67;15.10;;;14.90;99.90;;;;;;5253249;22;534073;-80
2022/10/01 11:38:39;;;;;;;26.57;14.77;;;14.80;99.90;;;;;;4328017;28;659309;-74
2022/10/01 11:41:31;;;;;;;23.57;12.50;;;14.60;99.90;;;;;;4307213;28;658256;-65
2022/10/01 11:44:21;;;;;;;19.97;12.30;;;14.60;99.90;;;;;;4326151;28;659600;-69
2022/10/01 11:47:09;;;;;;;18.77;11.47;;;14.60;99.90;;;;;;4325197;28;659172;-69
2022/10/01 11:49:58;;;;;;;21.47;12.77;;;14.80;99.90;;;;;;4333513;28;658890;-68
2022/10/01 11:52:47;;;;;;;28.67;18.57;;;14.80;99.90;;;;;;4326805;28;658741;-69
2022/10/01 11:58:51;;;;;;;22.70;12.97;;;14.90;99.90;;;;;;4254296;28;659438;-68
2022/10/01 12:01:39;;;;;;;23.00;13.47;;;14.90;99.90;;;;;;4333163;28;659536;-68
2022/10/01 12:04:31;;;;;;;22.53;14.07;;;14.90;99.90;;;;;;4324767;28;660196;-68
2022/10/01 12:07:22;;;;;;;28.30;14.53;;;14.70;99.90;;;;;;4331148;28;659791;-68
2022/10/01 12:10:16;;;;;;;29.27;16.37;;;14.70;99.90;;;;;;4325796;28;658961;-68
2022/10/01 12:13:07;;;;;;;28.50;16.70;;;14.70;99.90;;;;;;4332503;28;659090;-68
2022/10/01 12:15:56;;;;;;;31.63;17.00;;;14.70;99.90;;;;;;4325507;28;659007;-68
2022/10/01 12:18:48;;;;;;;29.37;16.70;;;14.50;99.90;;;;;;4328526;28;659549;-68
2022/10/01 12:21:38;;;;;;;28.53;16.73;;;14.50;99.90;;;;;;4311727;28;659736;-68
2022/10/01 12:24:29;;;;;;;36.03;18.27;;;14.30;99.90;;;;;;4332674;28;659220;-69
2022/10/01 12:27:43;;;;;;;31.93;17.80;;;14.30;99.90;;;;;;4324943;28;658406;-69
2022/10/01 12:30:32;;;;;;;28.53;17.67;;;14.10;99.90;;;;;;4323890;28;658197;-68
2022/10/01 12:33:35;;;;;;;32.27;18.63;;;14.10;99.90;;;;;;4354742;28;658880;-68
2022/10/01 12:36:25;;;;;;;34.93;18.20;;;14.00;99.90;;;;;;4309117;28;660042;-68
2022/10/01 12:39:24;;;;;;;31.63;17.30;;;14.00;99.90;;;;;;4332674;28;658913;-69
2022/10/01 12:42:30;;;;;;;31.33;17.63;;;14.00;99.90;;;;;;4305349;28;660403;-69
2022/10/01 12:45:22;;;;;;;31.13;17.63;;;14.10;99.90;;;;;;4305022;28;659337;-69
2022/10/01 12:48:14;;;;;;;34.83;17.90;;;14.00;99.90;;;;;;4327689;28;659135;-69
2022/10/01 12:51:25;;;;;;;31.10;16.67;;;14.10;99.90;;;;;;4333868;28;658551;-69
2022/10/01 12:54:25;;;;;;;31.93;17.57;;;14.10;99.90;;;;;;4309373;28;659863;-69
2022/10/01 12:57:21;;;;;;;32.47;16.20;;;14.00;99.90;;;;;;4330582;28;659268;-69
2022/10/01 13:00:13;;;;;;;27.23;15.83;;;14.10;99.90;;;;;;4328068;28;659266;-69
2022/10/01 13:03:26;;;;;;;29.80;16.03;;;14.10;99.90;;;;;;4314063;28;658520;-69
2022/10/01 13:06:19;;;;;;;46.47;21.10;;;13.90;99.90;;;;;;4328271;28;659549;-69
2022/10/01 13:09:11;;;;;;;41.30;21.07;;;13.70;99.90;;;;;;4336385;28;658702;-69
2022/10/01 13:12:06;;;;;;;25.17;14.43;;;13.70;99.90;;;;;;4327216;28;659049;-69
2022/10/01 13:14:54;;;;;;;25.83;14.57;;;13.70;99.90;;;;;;4328779;28;659156;-69
2022/10/01 13:17:45;;;;;;;27.17;14.90;;;13.70;99.90;;;;;;4335203;28;658260;-69
2022/10/01 13:20:36;;;;;;;26.47;16.17;;;13.60;99.90;;;;;;4333609;28;659475;-69
2022/10/01 13:23:27;;;;;;;25.07;14.73;;;13.50;99.90;;;;;;4330614;28;659751;-69
2022/10/01 13:26:17;;;;;;;22.47;13.17;;;13.30;99.90;;;;;;4335153;28;659146;-68
2022/10/01 13:29:11;;;;;;;19.57;12.20;;;13.30;99.90;;;;;;4333842;28;658333;-68
2022/10/01 13:32:00;;;;;;;31.13;15.23;;;13.30;99.90;;;;;;4334213;28;658285;-68
2022/10/01 13:34:47;;;;;;;39.43;16.97;;;13.40;99.90;;;;;;4344487;28;660008;-69
2022/10/01 13:37:36;;;;;;;23.53;12.93;;;13.50;99.90;;;;;;4374067;28;658727;-68
2022/10/01 13:40:25;;;;;;;31.33;15.67;;;13.50;99.90;;;;;;4346949;28;659670;-68
2022/10/01 13:43:15;;;;;;;25.38;14.52;;;13.40;99.90;;;;;;4345302;28;659858;-69
2022/10/01 13:46:06;;;;;;;26.43;13.70;;;13.40;99.90;;;;;;4344030;28;660274;-69
2022/10/01 13:48:54;;;;;;;23.20;13.27;;;13.40;99.90;;;;;;4348873;28;659870;-69
2022/10/01 13:51:41;;;;;;;25.40;13.27;;;13.40;99.90;;;;;;4349956;28;660367;-69
2022/10/01 13:54:32;;;;;;;25.37;14.43;;;13.40;99.90;;;;;;4373815;28;658898;-69
2022/10/01 13:57:27;;;;;;;24.00;14.30;;;13.40;99.90;;;;;;4349436;28;659343;-69
2022/10/01 14:00:24;;;;;;;25.20;13.83;;;13.40;99.90;;;;;;4351801;28;659097;-69
2022/10/01 14:03:27;;;;;;;26.47;15.30;;;13.50;99.90;;;;;;4351433;28;659158;-69
2022/10/01 14:06:18;;;;;;;25.23;14.17;;;13.40;99.90;;;;;;4347682;28;659041;-69
2022/10/01 14:09:06;;;;;;;22.40;13.93;;;13.40;99.90;;;;;;4329010;28;658666;-71
2022/10/01 14:18:08;;;;;;;34.70;17.47;;;13.40;99.90;;;;;;4326369;28;658753;-69
2022/10/01 14:20:59;;;;;;;29.97;17.73;;;13.30;99.90;;;;;;4352778;28;658904;-69
2022/10/01 14:23:51;;;;;;;31.40;16.00;;;13.30;99.90;;;;;;4347490;28;659898;-69
2022/10/01 14:26:42;;;;;;;32.73;17.73;;;13.30;99.90;;;;;;4353061;28;658807;-69
2022/10/01 14:29:38;;;;;;;36.73;17.27;;;13.20;99.90;;;;;;4345762;28;659189;-69
2022/10/01 14:32:30;;;;;;;25.93;15.80;;;13.10;99.90;;;;;;4336506;28;658274;-69
2022/10/01 14:35:23;;;;;;;32.37;16.70;;;13.20;99.90;;;;;;4350570;28;659542;-69
2022/10/01 14:38:12;;;;;;;31.47;16.17;;;13.10;99.90;;;;;;4347577;28;660033;-69
2022/10/01 14:41:01;;;;;;;32.20;16.83;;;13.20;99.90;;;;;;4367014;28;659556;-69
2022/10/01 14:43:48;;;;;;;29.67;16.30;;;13.20;99.90;;;;;;4346854;28;659822;-69